KABE/ABE METAR and TAF weather

Enter ICAO airport designator
Station Type Date Time Source
KABE METAR 2018/12/12 15:51 UTC NOAA

KABE 121551Z 33008KT 10SM BKN041 05/M05 A3015 RMK AO2 SLP212 T00501050


Station Type Date Time Source
KABE Decoded METAR 2018/12/12 15:51 UTC NOAA

LEHIGH VALLEY INTERNATIONAL AIRPORT, PA, United States (KABE) 40-39N 075-27W 114M
Dec 12, 2018 - 10:51 AM EST / 2018.12.12 1551 UTC
Wind: from the NNW (330 degrees) at 9 MPH (8 KT):0
Visibility: 10 mile(s):0
Sky conditions: mostly cloudy
Temperature: 41.0 F (5.0 C)
Dew Point: 23.0 F (-5.0 C)
Relative Humidity: 48%
Pressure (altimeter): 30.15 in. Hg (1020 hPa)
ob: KABE 121551Z 33008KT 10SM BKN041 05/M05 A3015 RMK AO2 SLP212 T00501050
cycle: 16

Station Type Date Time Source
KABE TAF 2018/12/12 13:12 UTC NOAA

TAF
AMD KABE 121310Z 1213/1312 26008KT P6SM BKN035
FM121600 30008KT P6SM FEW250
FM122200 VRB03KT P6SM BKN250
FM130600 VRB02KT P6SM OVC060
FM131000 08004KT 3SM -SN OVC025


Example: see airport list